Time;durP1;ratioP1;P1;durP2;ratioP2;P2;SDS_P1;SDS_P2;PMS_P1;PMS_P2;Temp;Humidity;BMP_temperature;BMP_pressure;BME280_temperature;BME280_humidity;BME280_pressure;Samples;Min_cycle;Max_cycle;Signal;HPM_P1;HPM_P2
2022/03/29 00:01:59;;;;;;;39.13;22.90;;;12.90;65.60;;;;;;5106802;27;20298;-89
2022/03/29 00:04:28;;;;;;;40.13;22.27;;;12.90;65.60;;;;;;5100543;27;20305;-90
2022/03/29 00:06:55;;;;;;;35.63;22.23;;;12.90;65.60;;;;;;5098897;27;20742;-91
2022/03/29 00:09:24;;;;;;;41.83;23.77;;;12.90;65.60;;;;;;5100730;27;20294;-91
2022/03/29 00:11:52;;;;;;;40.30;22.17;;;12.90;65.80;;;;;;5100472;28;20268;-90
2022/03/29 00:14:19;;;;;;;37.13;22.27;;;12.90;66.30;;;;;;5109117;28;20286;-92
2022/03/29 00:16:47;;;;;;;36.97;22.07;;;12.90;65.60;;;;;;5106488;27;20204;-91
2022/03/29 00:19:15;;;;;;;42.33;23.57;;;12.90;66.00;;;;;;5114013;27;20195;-91
2022/03/29 00:21:42;;;;;;;37.30;20.87;;;12.90;65.60;;;;;;5101052;27;20201;-91
2022/03/29 00:24:09;;;;;;;39.80;23.33;;;12.90;65.80;;;;;;5114252;27;20205;-90
2022/03/29 00:26:36;;;;;;;37.30;23.00;;;12.80;66.00;;;;;;5100758;27;20209;-91
2022/03/29 00:29:03;;;;;;;41.50;21.90;;;12.80;66.30;;;;;;5097223;28;20673;-92
2022/03/29 00:31:30;;;;;;;35.73;21.00;;;12.80;66.40;;;;;;5104945;27;20231;-91
2022/03/29 00:33:59;;;;;;;35.10;21.20;;;12.80;66.20;;;;;;5115280;27;20290;-90
2022/03/29 00:36:28;;;;;;;38.20;21.57;;;12.80;66.40;;;;;;5103622;27;20242;-90
2022/03/29 00:38:55;;;;;;;47.33;24.60;;;12.80;66.40;;;;;;5111116;27;20207;-91
2022/03/29 00:41:22;;;;;;;43.53;23.73;;;12.70;66.10;;;;;;5110041;27;20257;-92
2022/03/29 00:43:49;;;;;;;38.33;21.97;;;12.70;66.30;;;;;;5096421;28;20457;-91
2022/03/29 00:46:19;;;;;;;48.50;24.57;;;12.70;66.30;;;;;;5108717;27;20284;-91
2022/03/29 00:48:46;;;;;;;37.73;22.23;;;12.70;66.30;;;;;;5099757;27;20571;-91
2022/03/29 00:51:14;;;;;;;40.87;22.73;;;12.70;66.50;;;;;;5121148;27;20272;-90
2022/03/29 00:53:42;;;;;;;34.90;22.17;;;12.70;66.50;;;;;;5121533;27;20239;-93
2022/03/29 00:56:15;;;;;;;32.87;22.27;;;12.70;66.60;;;;;;5106266;28;20245;-92
2022/03/29 00:58:42;;;;;;;43.07;23.40;;;12.70;67.20;;;;;;5097167;27;20205;-90
2022/03/29 01:01:11;;;;;;;39.70;22.73;;;12.70;66.90;;;;;;5094672;28;20294;-90
2022/03/29 01:03:38;;;;;;;35.73;21.40;;;12.60;66.80;;;;;;5095339;28;20287;-91
2022/03/29 01:06:05;;;;;;;35.27;22.27;;;12.60;66.80;;;;;;5104245;28;20299;-92
2022/03/29 01:08:37;;;;;;;38.83;22.57;;;12.60;66.90;;;;;;5112122;28;20197;-93
2022/03/29 01:11:08;;;;;;;33.97;21.17;;;12.60;67.70;;;;;;5126188;27;20547;-95
2022/03/29 01:13:42;;;;;;;35.30;21.73;;;12.60;67.50;;;;;;5121791;28;20271;-94
2022/03/29 01:18:58;;;;;;;39.50;24.37;;;12.60;67.30;;;;;;5102688;28;20228;-93
2022/03/29 01:21:30;;;;;;;37.20;22.50;;;12.60;67.40;;;;;;5105413;28;20204;-91
2022/03/29 01:24:00;;;;;;;36.77;22.80;;;12.60;67.40;;;;;;5109438;28;20228;-91
2022/03/29 01:26:27;;;;;;;43.23;23.93;;;12.60;67.70;;;;;;5111539;27;20215;-94
2022/03/29 01:28:57;;;;;;;40.57;23.00;;;12.60;67.40;;;;;;5122265;27;20207;-92
2022/03/29 01:31:26;;;;;;;46.37;24.23;;;12.60;67.80;;;;;;5114433;28;20225;-90
2022/03/29 01:33:53;;;;;;;40.37;23.93;;;12.60;67.60;;;;;;5128534;27;20208;-91
2022/03/29 01:36:20;;;;;;;37.57;23.23;;;12.60;67.30;;;;;;5126269;27;20292;-91
2022/03/29 01:38:47;;;;;;;39.37;22.50;;;12.60;67.50;;;;;;5105989;27;20200;-91
2022/03/29 01:41:17;;;;;;;43.77;24.73;;;12.60;67.60;;;;;;5104694;27;20224;-92
2022/03/29 01:43:44;;;;;;;42.57;25.00;;;12.60;68.00;;;;;;5111273;27;21015;-91
2022/03/29 01:46:12;;;;;;;40.90;22.93;;;12.60;67.70;;;;;;5095647;28;20741;-91
2022/03/29 01:48:39;;;;;;;42.77;24.90;;;12.60;67.70;;;;;;5098553;28;20213;-92
2022/03/29 01:51:07;;;;;;;41.83;24.33;;;12.60;67.90;;;;;;5101869;28;20205;-92
2022/03/29 01:53:34;;;;;;;40.67;24.33;;;12.60;68.00;;;;;;5098020;28;20218;-91
2022/03/29 01:56:02;;;;;;;38.57;23.83;;;12.60;68.00;;;;;;5111068;28;20289;-91
2022/03/29 01:58:31;;;;;;;47.77;25.50;;;12.60;68.30;;;;;;5095041;28;20225;-92
2022/03/29 02:00:59;;;;;;;46.03;26.83;;;12.50;68.40;;;;;;5106660;28;20735;-90
2022/03/29 02:03:27;;;;;;;40.13;24.93;;;12.60;68.30;;;;;;5117482;27;20205;-91
2022/03/29 02:05:56;;;;;;;57.57;28.63;;;12.50;68.30;;;;;;5105829;28;20239;-93
2022/03/29 02:08:23;;;;;;;57.60;28.50;;;12.50;68.60;;;;;;5104196;27;20228;-90
2022/03/29 02:10:50;;;;;;;45.73;25.77;;;12.50;68.40;;;;;;5113214;28;20231;-90
2022/03/29 02:13:17;;;;;;;49.10;27.43;;;12.60;68.60;;;;;;5111458;27;20292;-92
2022/03/29 02:15:45;;;;;;;39.10;24.47;;;12.50;68.80;;;;;;5112151;27;20293;-93
2022/03/29 02:18:12;;;;;;;42.70;25.93;;;12.50;68.90;;;;;;5096027;28;20699;-91
2022/03/29 02:20:39;;;;;;;45.97;25.83;;;12.60;69.00;;;;;;5108434;27;20723;-93
2022/03/29 02:23:07;;;;;;;43.27;26.50;;;12.50;68.90;;;;;;5101080;28;20258;-90
2022/03/29 02:25:35;;;;;;;40.00;24.03;;;12.60;69.00;;;;;;5110300;28;20233;-92
2022/03/29 02:28:03;;;;;;;52.67;27.47;;;12.60;69.00;;;;;;5105276;27;20287;-94
2022/03/29 02:30:32;;;;;;;39.97;24.37;;;12.60;69.00;;;;;;5109376;27;20749;-92
2022/03/29 02:33:02;;;;;;;48.97;25.90;;;12.60;69.00;;;;;;5112805;27;20202;-92
2022/03/29 02:35:34;;;;;;;43.57;24.73;;;12.60;69.00;;;;;;5124810;27;20241;-92
2022/03/29 02:38:01;;;;;;;47.00;26.57;;;12.60;68.70;;;;;;5108402;27;20206;-94
2022/03/29 02:40:28;;;;;;;45.87;24.97;;;12.60;68.70;;;;;;5110419;27;20208;-92
2022/03/29 02:42:56;;;;;;;49.87;27.37;;;12.60;69.00;;;;;;5123366;27;20297;-92
2022/03/29 02:45:26;;;;;;;43.80;25.43;;;12.60;69.00;;;;;;5112407;27;20301;-91
2022/03/29 02:47:55;;;;;;;48.97;26.83;;;12.60;69.30;;;;;;5105249;28;20267;-92
2022/03/29 02:50:25;;;;;;;48.73;27.83;;;12.60;69.50;;;;;;5104238;27;20221;-92
2022/03/29 02:52:53;;;;;;;41.90;24.43;;;12.60;69.80;;;;;;5104154;28;20692;-91
2022/03/29 02:55:22;;;;;;;47.17;26.77;;;12.60;69.40;;;;;;5103515;28;20239;-92
2022/03/29 02:57:50;;;;;;;48.27;26.97;;;12.60;69.40;;;;;;5110255;27;20206;-89
2022/03/29 03:00:19;;;;;;;48.80;27.40;;;12.60;69.30;;;;;;5096636;28;20290;-92
2022/03/29 03:02:47;;;;;;;52.77;28.03;;;12.60;69.50;;;;;;5117193;27;20239;-92
2022/03/29 03:05:14;;;;;;;48.80;26.90;;;12.60;69.40;;;;;;5109118;27;20215;-90
2022/03/29 03:07:44;;;;;;;55.20;28.33;;;12.60;69.00;;;;;;5112621;27;20220;-89
2022/03/29 03:10:13;;;;;;;50.80;27.83;;;12.60;69.20;;;;;;5126782;27;20192;-92
2022/03/29 03:12:42;;;;;;;47.77;27.90;;;12.60;70.20;;;;;;5105483;28;20218;-90
2022/03/29 03:15:12;;;;;;;58.90;30.37;;;12.60;69.70;;;;;;5131993;27;20754;-90
2022/03/29 03:17:40;;;;;;;43.53;25.00;;;12.60;70.00;;;;;;5120336;27;20194;-94
2022/03/29 03:20:09;;;;;;;41.93;25.97;;;12.60;70.00;;;;;;5109166;27;20787;-91
2022/03/29 03:22:39;;;;;;;47.67;26.77;;;12.60;70.00;;;;;;5109593;28;20205;-94
2022/03/29 03:25:09;;;;;;;44.43;26.83;;;12.60;70.30;;;;;;5111681;27;20296;-92
2022/03/29 03:27:36;;;;;;;43.90;26.00;;;12.60;70.30;;;;;;5110507;27;20229;-92
2022/03/29 03:30:07;;;;;;;44.03;25.67;;;12.60;69.90;;;;;;5106843;27;20207;-91
2022/03/29 03:32:34;;;;;;;58.80;29.47;;;12.60;70.30;;;;;;5099350;28;20242;-92
2022/03/29 03:35:01;;;;;;;54.63;28.47;;;12.60;70.10;;;;;;5106943;27;20845;-91
2022/03/29 03:37:28;;;;;;;46.07;26.90;;;12.60;70.20;;;;;;5106059;28;20280;-90
2022/03/29 03:39:55;;;;;;;49.10;27.53;;;12.60;70.40;;;;;;5106046;27;20205;-92
2022/03/29 03:42:24;;;;;;;46.83;26.67;;;12.60;70.40;;;;;;5091358;28;20571;-93
2022/03/29 03:44:52;;;;;;;38.30;24.67;;;12.60;70.50;;;;;;5101949;27;20187;-92
2022/03/29 03:47:19;;;;;;;44.80;25.80;;;12.60;70.50;;;;;;5101992;28;20290;-92
2022/03/29 03:49:46;;;;;;;44.67;25.27;;;12.60;70.00;;;;;;5105992;27;20243;-91
2022/03/29 03:52:13;;;;;;;45.73;26.10;;;12.60;70.20;;;;;;5099862;27;20215;-92
2022/03/29 03:54:40;;;;;;;43.93;24.83;;;12.60;70.40;;;;;;5101689;27;20279;-91
2022/03/29 03:57:08;;;;;;;50.53;28.03;;;12.70;70.60;;;;;;5101215;27;20305;-91
2022/03/29 03:59:36;;;;;;;45.80;27.07;;;12.60;70.20;;;;;;5109786;27;20203;-91
2022/03/29 04:02:03;;;;;;;47.73;26.00;;;12.70;70.20;;;;;;5104760;27;20240;-91
2022/03/29 04:04:30;;;;;;;58.33;28.77;;;12.70;70.30;;;;;;5106775;27;20195;-90
2022/03/29 04:06:59;;;;;;;41.97;25.20;;;12.70;70.40;;;;;;5111110;27;20318;-93
2022/03/29 04:09:27;;;;;;;41.27;24.33;;;12.70;70.40;;;;;;5107919;27;20883;-94
2022/03/29 04:11:53;;;;;;;47.07;25.53;;;12.70;70.30;;;;;;5105566;27;20329;-91
2022/03/29 04:14:20;;;;;;;43.13;24.67;;;12.70;70.40;;;;;;5106431;28;20279;-92
2022/03/29 04:16:50;;;;;;;44.87;25.83;;;12.70;70.50;;;;;;5117933;27;20320;-91
2022/03/29 04:19:17;;;;;;;48.73;26.73;;;12.80;70.90;;;;;;5107422;28;20288;-92
2022/03/29 04:21:44;;;;;;;42.33;24.80;;;12.80;70.70;;;;;;5106229;27;20208;-90
2022/03/29 04:24:11;;;;;;;46.10;26.67;;;12.80;70.70;;;;;;5099996;28;20292;-88
2022/03/29 04:26:38;;;;;;;44.87;26.10;;;12.80;70.90;;;;;;5102418;28;20293;-90
2022/03/29 04:29:05;;;;;;;49.30;26.47;;;12.70;70.70;;;;;;5089799;28;20205;-89
2022/03/29 04:31:32;;;;;;;45.33;25.40;;;12.70;70.80;;;;;;5109417;28;20685;-89
2022/03/29 04:34:01;;;;;;;42.07;24.77;;;12.70;70.80;;;;;;5105291;27;20271;-94
2022/03/29 04:36:29;;;;;;;43.40;23.10;;;12.70;71.10;;;;;;5108163;27;20231;-93
2022/03/29 04:38:57;;;;;;;49.27;26.87;;;12.70;71.10;;;;;;5103494;27;20281;-92
2022/03/29 04:41:28;;;;;;;48.73;27.70;;;12.70;71.00;;;;;;5105330;27;20202;-92
2022/03/29 04:43:55;;;;;;;44.13;25.47;;;12.70;71.50;;;;;;5102879;27;20654;-92
2022/03/29 04:46:22;;;;;;;56.07;28.53;;;12.70;71.20;;;;;;5092472;28;20360;-91
2022/03/29 04:48:52;;;;;;;47.53;25.67;;;12.70;71.20;;;;;;5093273;28;20218;-92
2022/03/29 04:51:20;;;;;;;45.70;26.33;;;12.70;71.20;;;;;;5109401;27;20198;-89
2022/03/29 04:53:50;;;;;;;51.30;27.63;;;12.70;71.50;;;;;;5120117;27;20291;-91
2022/03/29 04:56:17;;;;;;;40.73;24.27;;;12.70;71.40;;;;;;5093822;28;20308;-95
2022/03/29 04:58:44;;;;;;;47.17;25.83;;;12.70;71.50;;;;;;5101206;28;20692;-91
2022/03/29 05:01:11;;;;;;;44.40;25.33;;;12.70;71.40;;;;;;5111854;27;20198;-95
2022/03/29 05:03:39;;;;;;;46.50;25.23;;;12.70;71.50;;;;;;5126486;27;20286;-94
2022/03/29 05:06:08;;;;;;;46.83;25.37;;;12.70;71.80;;;;;;5102931;27;20226;-95
2022/03/29 05:08:36;;;;;;;45.93;25.40;;;12.70;71.80;;;;;;5102291;28;20205;-94
2022/03/29 05:11:05;;;;;;;40.33;25.37;;;12.70;71.80;;;;;;5102117;27;20236;-93
2022/03/29 05:13:32;;;;;;;48.90;26.27;;;12.70;71.80;;;;;;5101213;28;20304;-94
2022/03/29 05:16:01;;;;;;;47.77;27.20;;;12.70;71.80;;;;;;5091656;28;20223;-95
2022/03/29 05:18:29;;;;;;;45.40;24.37;;;12.70;71.80;;;;;;5106250;27;20206;-92
2022/03/29 05:20:56;;;;;;;46.40;24.27;;;12.70;71.60;;;;;;5110553;27;20223;-94
2022/03/29 05:23:23;;;;;;;45.13;26.27;;;12.70;72.20;;;;;;5105068;27;20239;-92
2022/03/29 05:25:52;;;;;;;40.03;24.23;;;12.70;72.20;;;;;;5098485;28;20288;-92
2022/03/29 05:28:18;;;;;;;52.07;27.17;;;12.70;71.80;;;;;;5125054;27;20197;-91
2022/03/29 05:30:45;;;;;;;52.17;26.80;;;12.70;71.70;;;;;;5094485;27;20284;-93
2022/03/29 05:33:18;;;;;;;42.87;23.93;;;12.70;71.80;;;;;;5098839;27;20276;-91
2022/03/29 05:35:45;;;;;;;44.20;24.83;;;12.70;72.20;;;;;;5089988;28;20195;-95
2022/03/29 05:38:13;;;;;;;50.70;25.97;;;12.70;71.80;;;;;;5096127;27;20199;-90
2022/03/29 05:40:41;;;;;;;44.47;24.73;;;12.70;72.00;;;;;;5100086;27;20709;-94
2022/03/29 05:43:12;;;;;;;45.17;26.93;;;12.70;72.00;;;;;;5105846;27;20205;-91
2022/03/29 05:45:41;;;;;;;47.63;26.03;;;12.70;72.70;;;;;;5104710;27;20288;-91
2022/03/29 05:50:54;;;;;;;46.67;25.23;;;12.70;72.30;;;;;;5118784;27;20203;-90
2022/03/29 05:53:22;;;;;;;41.33;24.83;;;12.70;72.20;;;;;;5113337;27;20647;-90
2022/03/29 05:55:50;;;;;;;49.63;25.90;;;12.70;72.20;;;;;;5112318;28;20189;-90
2022/03/29 05:58:18;;;;;;;44.10;24.63;;;12.70;72.40;;;;;;5106331;28;20243;-91
2022/03/29 06:00:45;;;;;;;53.60;26.60;;;12.70;73.30;;;;;;5103656;28;20232;-93
2022/03/29 06:03:12;;;;;;;47.43;25.87;;;12.70;72.40;;;;;;5104474;28;20301;-90
2022/03/29 06:05:42;;;;;;;46.13;25.70;;;12.70;72.50;;;;;;5110368;28;20316;-90
2022/03/29 06:08:11;;;;;;;41.13;22.70;;;12.70;72.50;;;;;;5102271;28;20277;-90
2022/03/29 06:10:38;;;;;;;43.43;24.70;;;12.70;72.80;;;;;;5118970;28;20205;-89
2022/03/29 06:13:06;;;;;;;45.17;25.00;;;12.70;72.70;;;;;;5102872;28;20195;-91
2022/03/29 06:15:37;;;;;;;45.77;23.80;;;12.70;72.80;;;;;;5103951;28;20691;-90
2022/03/29 06:18:04;;;;;;;49.47;24.77;;;12.70;72.80;;;;;;5095315;28;20212;-92
2022/03/29 06:20:32;;;;;;;41.03;24.50;;;12.70;72.50;;;;;;5090533;28;20300;-91
2022/03/29 06:23:00;;;;;;;40.17;21.47;;;12.70;72.70;;;;;;5100142;28;20194;-91
2022/03/29 06:25:27;;;;;;;48.93;24.50;;;12.70;72.80;;;;;;5112224;27;20213;-93
2022/03/29 06:27:54;;;;;;;47.27;24.53;;;12.70;72.80;;;;;;5107319;28;20228;-93
2022/03/29 06:30:21;;;;;;;55.10;26.03;;;12.80;72.90;;;;;;5110240;28;20210;-90
2022/03/29 06:32:52;;;;;;;50.90;26.23;;;12.80;72.90;;;;;;5121058;28;20239;-93
2022/03/29 06:35:21;;;;;;;41.90;23.83;;;12.80;73.40;;;;;;5107113;28;20652;-90
2022/03/29 06:37:48;;;;;;;49.93;24.50;;;12.80;73.00;;;;;;5109253;28;20235;-90
2022/03/29 06:40:15;;;;;;;49.27;24.70;;;12.80;73.10;;;;;;5098681;28;20251;-89
2022/03/29 06:42:42;;;;;;;50.27;25.27;;;12.80;73.20;;;;;;5105842;27;20282;-88
2022/03/29 06:45:11;;;;;;;47.70;24.67;;;12.80;73.10;;;;;;5106781;28;20669;-89
2022/03/29 06:47:39;;;;;;;44.33;24.70;;;12.90;73.70;;;;;;5111317;27;20205;-88
2022/03/29 06:50:09;;;;;;;53.97;26.60;;;12.90;73.60;;;;;;5104843;28;20661;-89
2022/03/29 06:52:37;;;;;;;45.13;23.60;;;12.90;73.90;;;;;;5106607;27;20201;-89
2022/03/29 06:55:06;;;;;;;41.80;23.70;;;12.90;73.70;;;;;;5103959;27;20223;-93
2022/03/29 06:57:33;;;;;;;46.50;24.20;;;12.90;73.80;;;;;;5108786;27;20237;-89
2022/03/29 07:00:04;;;;;;;54.80;24.00;;;13.00;73.80;;;;;;5098697;27;20292;-90
2022/03/29 07:02:31;;;;;;;45.50;23.57;;;13.00;74.30;;;;;;5109129;27;20681;-89
2022/03/29 07:04:59;;;;;;;39.67;22.60;;;13.00;73.90;;;;;;5109000;27;21070;-92
2022/03/29 07:07:29;;;;;;;47.70;23.07;;;13.00;73.80;;;;;;5103183;27;20201;-90
2022/03/29 07:12:52;;;;;;;46.60;23.43;;;13.10;73.90;;;;;;5099202;28;20216;-93
2022/03/29 07:15:19;;;;;;;46.93;21.30;;;13.20;74.50;;;;;;5113698;27;20280;-90
2022/03/29 07:17:48;;;;;;;33.47;20.40;;;13.20;73.90;;;;;;5118986;27;20216;-91
2022/03/29 07:20:19;;;;;;;41.83;22.30;;;13.20;74.00;;;;;;5117485;27;20201;-91
2022/03/29 07:22:48;;;;;;;38.20;21.43;;;13.30;74.10;;;;;;5119717;27;20218;-88
2022/03/29 07:25:18;;;;;;;42.97;23.07;;;13.30;74.00;;;;;;5103910;28;20675;-92
2022/03/29 07:27:45;;;;;;;37.93;21.00;;;13.40;74.00;;;;;;5111390;27;20190;-90
2022/03/29 07:30:13;;;;;;;44.10;22.20;;;13.40;74.60;;;;;;5101644;27;20216;-90
2022/03/29 07:32:44;;;;;;;37.20;21.60;;;13.40;73.80;;;;;;5110678;27;20293;-90
2022/03/29 07:35:12;;;;;;;38.80;22.00;;;13.40;73.70;;;;;;5095610;27;20293;-90
2022/03/29 07:37:39;;;;;;;42.67;22.80;;;13.50;73.60;;;;;;5100431;27;20221;-89
2022/03/29 07:40:09;;;;;;;35.30;21.33;;;13.50;73.50;;;;;;5108798;27;20229;-89
2022/03/29 07:42:37;;;;;;;33.53;19.20;;;13.50;73.60;;;;;;5105023;27;20202;-90
2022/03/29 07:45:07;;;;;;;34.53;19.77;;;13.60;73.40;;;;;;5114438;27;20197;-90
2022/03/29 07:47:34;;;;;;;36.33;20.17;;;13.60;73.50;;;;;;5096120;27;20268;-90
2022/03/29 07:50:07;;;;;;;35.73;19.83;;;13.60;73.20;;;;;;5105423;27;20572;-90
2022/03/29 07:52:34;;;;;;;42.33;22.27;;;13.60;73.40;;;;;;5093210;27;20230;-91
2022/03/29 07:55:03;;;;;;;40.30;21.93;;;13.70;73.00;;;;;;5122395;27;20273;-95
2022/03/29 07:57:33;;;;;;;33.03;19.67;;;13.70;73.00;;;;;;5135159;27;20341;-93
2022/03/29 08:00:31;;;;;;;28.17;17.93;;;13.70;73.20;;;;;;5110358;27;20200;-91
2022/03/29 08:02:48;;;;;;;32.13;19.50;;;13.80;73.10;;;;;;5103151;27;20215;-89
2022/03/29 08:05:16;;;;;;;41.33;20.70;;;13.80;73.00;;;;;;5097618;28;20210;-92
2022/03/29 08:07:43;;;;;;;39.30;20.90;;;13.80;73.10;;;;;;5098853;27;20308;-91
2022/03/29 08:10:12;;;;;;;38.37;20.47;;;13.80;73.00;;;;;;5101544;27;20237;-91
2022/03/29 08:12:41;;;;;;;37.97;21.00;;;13.80;73.10;;;;;;5092979;28;20749;-91
2022/03/29 08:15:10;;;;;;;33.30;19.57;;;13.90;73.20;;;;;;5094838;28;20202;-92
2022/03/29 08:17:38;;;;;;;35.77;19.80;;;13.90;73.20;;;;;;5100760;28;20302;-91
2022/03/29 08:20:06;;;;;;;38.87;22.03;;;13.90;73.20;;;;;;5105243;27;20198;-91
2022/03/29 08:22:34;;;;;;;37.67;21.00;;;14.00;73.20;;;;;;5100539;27;20220;-90
2022/03/29 08:25:04;;;;;;;34.80;20.47;;;14.00;73.20;;;;;;5108435;28;20218;-88
2022/03/29 08:27:31;;;;;;;39.20;20.83;;;14.00;73.30;;;;;;5104073;27;20205;-88
2022/03/29 08:30:00;;;;;;;37.53;20.77;;;14.10;73.10;;;;;;5112188;27;20190;-90
2022/03/29 08:32:27;;;;;;;38.33;21.10;;;14.10;73.00;;;;;;5100634;27;20558;-91
2022/03/29 08:34:54;;;;;;;36.10;19.70;;;14.20;73.00;;;;;;5099857;27;20231;-89
2022/03/29 08:37:22;;;;;;;37.47;21.43;;;14.20;72.90;;;;;;5106169;27;20318;-90
2022/03/29 08:39:48;;;;;;;32.50;20.13;;;14.30;72.90;;;;;;5094547;27;22110;-91
2022/03/29 08:42:16;;;;;;;36.27;20.87;;;14.30;72.80;;;;;;5105249;27;20275;-89
2022/03/29 08:44:44;;;;;;;38.07;22.10;;;14.30;72.70;;;;;;5108918;28;20263;-90
2022/03/29 08:47:15;;;;;;;33.73;20.00;;;14.40;72.70;;;;;;5107056;27;20210;-88
2022/03/29 08:49:43;;;;;;;32.77;20.30;;;14.40;72.70;;;;;;5119167;27;20209;-88
2022/03/29 08:52:11;;;;;;;34.37;20.43;;;14.50;72.60;;;;;;5131506;27;20699;-87
2022/03/29 08:54:38;;;;;;;34.10;20.53;;;14.50;72.40;;;;;;5120249;27;20198;-88
2022/03/29 08:57:06;;;;;;;32.40;20.00;;;14.50;72.20;;;;;;5109658;28;20314;-87
2022/03/29 08:59:34;;;;;;;35.63;21.50;;;14.60;72.20;;;;;;5123882;27;20193;-90
2022/03/29 09:02:09;;;;;;;33.27;21.50;;;14.60;72.10;;;;;;5126672;27;20197;-88
2022/03/29 09:04:39;;;;;;;38.67;22.80;;;14.60;72.20;;;;;;5127548;27;20248;-90
2022/03/29 09:07:08;;;;;;;37.43;22.53;;;14.60;72.00;;;;;;5123247;27;20203;-88
2022/03/29 09:09:36;;;;;;;37.60;22.80;;;14.60;72.10;;;;;;5131014;27;20205;-89
2022/03/29 09:12:16;;;;;;;36.50;22.03;;;14.50;72.10;;;;;;5122384;27;20263;-88
2022/03/29 09:14:55;;;;;;;38.00;23.43;;;14.50;72.30;;;;;;5109662;27;20212;-88
2022/03/29 09:17:26;;;;;;;38.27;22.17;;;14.50;72.40;;;;;;5106850;28;20214;-88
2022/03/29 09:19:56;;;;;;;37.33;22.67;;;14.50;72.50;;;;;;5113350;28;20209;-91
2022/03/29 09:22:42;;;;;;;35.10;21.40;;;14.50;72.50;;;;;;5109886;28;20282;-88
2022/03/29 09:25:12;;;;;;;38.50;23.53;;;14.50;72.90;;;;;;5112227;27;20197;-88
2022/03/29 09:27:54;;;;;;;34.90;22.33;;;14.50;72.80;;;;;;5107194;27;20206;-88
2022/03/29 09:30:22;;;;;;;37.63;23.13;;;14.50;73.20;;;;;;5103353;27;20727;-92
2022/03/29 09:32:58;;;;;;;36.33;23.50;;;14.50;73.20;;;;;;5097702;28;20198;-90
2022/03/29 09:35:27;;;;;;;36.80;24.33;;;14.50;73.40;;;;;;5124909;27;20221;-88
2022/03/29 09:37:54;;;;;;;38.67;22.63;;;14.50;73.40;;;;;;5100603;28;20238;-88
2022/03/29 09:40:21;;;;;;;39.77;25.00;;;14.60;73.50;;;;;;5097369;27;20206;-89
2022/03/29 09:43:10;;;;;;;39.93;24.87;;;14.60;73.50;;;;;;5097505;28;20199;-88
2022/03/29 09:45:48;;;;;;;41.17;24.80;;;14.70;74.00;;;;;;5087915;28;20834;-88
2022/03/29 09:48:23;;;;;;;48.67;27.03;;;14.70;74.00;;;;;;5107100;28;20281;-89
2022/03/29 09:50:53;;;;;;;48.13;27.27;;;14.80;74.00;;;;;;5115096;27;20758;-88
2022/03/29 09:53:41;;;;;;;40.13;25.00;;;14.90;73.80;;;;;;5118858;27;20215;-88
2022/03/29 09:56:10;;;;;;;38.23;24.90;;;14.90;73.70;;;;;;5107125;28;20203;-87
2022/03/29 09:58:38;;;;;;;40.50;26.23;;;15.00;73.30;;;;;;5104994;28;20259;-89
2022/03/29 10:01:06;;;;;;;41.73;25.23;;;15.10;73.20;;;;;;5126849;28;20195;-88
2022/03/29 10:03:34;;;;;;;39.13;25.67;;;15.10;73.20;;;;;;5119691;28;20223;-88
2022/03/29 10:06:05;;;;;;;41.27;26.67;;;15.20;73.10;;;;;;5106857;28;20191;-88
2022/03/29 10:11:22;;;;;;;36.80;24.73;;;15.30;72.90;;;;;;5104616;28;20263;-88
2022/03/29 10:13:49;;;;;;;41.97;26.77;;;15.40;72.70;;;;;;5108381;28;20201;-88
2022/03/29 10:16:22;;;;;;;42.23;26.70;;;15.50;72.50;;;;;;5119199;28;20243;-90
2022/03/29 10:18:56;;;;;;;37.93;25.37;;;15.60;72.30;;;;;;5132033;28;20251;-92
2022/03/29 10:21:24;;;;;;;39.73;26.63;;;15.60;72.10;;;;;;5111146;28;20204;-89
2022/03/29 10:23:53;;;;;;;43.30;27.10;;;15.70;71.90;;;;;;5101833;28;20210;-89
2022/03/29 10:26:28;;;;;;;39.27;26.47;;;15.80;72.20;;;;;;5109417;28;20233;-94
2022/03/29 10:28:55;;;;;;;39.37;27.10;;;15.90;72.20;;;;;;5117543;28;20285;-91
2022/03/29 10:31:31;;;;;;;39.00;26.33;;;16.10;72.10;;;;;;5114130;27;20666;-94
2022/03/29 10:34:24;;;;;;;37.33;25.87;;;16.10;71.40;;;;;;5137801;27;20239;-88
2022/03/29 10:37:08;;;;;;;41.10;27.50;;;16.30;71.40;;;;;;5122445;27;20209;-91
2022/03/29 10:39:55;;;;;;;40.07;26.77;;;16.40;71.10;;;;;;5116801;28;20240;-89
2022/03/29 10:42:30;;;;;;;48.77;29.30;;;16.50;70.70;;;;;;5112239;27;20200;-89
2022/03/29 10:45:02;;;;;;;41.77;27.73;;;16.70;70.50;;;;;;5129531;27;20295;-88
2022/03/29 10:47:31;;;;;;;47.60;27.87;;;16.80;69.50;;;;;;5116301;27;20207;-88
2022/03/29 10:49:58;;;;;;;43.63;28.57;;;16.90;69.60;;;;;;5134057;27;20248;-90
2022/03/29 10:52:37;;;;;;;41.17;28.30;;;17.00;69.90;;;;;;5132665;27;20609;-87
2022/03/29 10:55:25;;;;;;;42.80;27.73;;;17.10;69.20;;;;;;5125456;27;20199;-88
2022/03/29 10:58:07;;;;;;;42.43;28.10;;;17.30;68.70;;;;;;5109181;28;20290;-88
2022/03/29 11:00:35;;;;;;;41.20;29.10;;;17.40;68.50;;;;;;5095122;28;20217;-89
2022/03/29 11:03:15;;;;;;;44.90;29.33;;;17.60;68.40;;;;;;5116341;28;20222;-89
2022/03/29 11:06:10;;;;;;;44.80;29.97;;;17.70;67.00;;;;;;5103224;28;20224;-87
2022/03/29 11:08:42;;;;;;;41.17;27.03;;;17.70;66.60;;;;;;5086500;28;20202;-91
2022/03/29 11:11:40;;;;;;;45.57;30.17;;;17.90;67.90;;;;;;5095253;28;20202;-88
2022/03/29 11:14:40;;;;;;;40.40;27.83;;;18.00;66.30;;;;;;5095898;28;20241;-89
2022/03/29 11:17:43;;;;;;;43.47;28.87;;;18.20;66.20;;;;;;5093510;28;20209;-88
2022/03/29 11:20:32;;;;;;;43.20;29.57;;;18.30;65.70;;;;;;5110802;28;20563;-90
2022/03/29 11:23:04;;;;;;;41.37;28.53;;;18.40;64.10;;;;;;5110832;27;20208;-89
2022/03/29 11:25:39;;;;;;;48.83;30.83;;;18.50;64.50;;;;;;5132894;27;20213;-89
2022/03/29 11:28:07;;;;;;;42.87;28.97;;;18.60;63.80;;;;;;5113763;27;20206;-90
2022/03/29 11:30:35;;;;;;;36.73;28.03;;;18.60;64.20;;;;;;5111508;28;20645;-89
2022/03/29 11:33:04;;;;;;;41.83;28.17;;;18.60;64.20;;;;;;5112363;27;20326;-88
2022/03/29 11:35:32;;;;;;;42.97;28.80;;;18.70;63.50;;;;;;5121353;28;20209;-88
2022/03/29 11:38:08;;;;;;;45.37;30.10;;;18.80;63.50;;;;;;5127106;27;20320;-89
2022/03/29 11:40:37;;;;;;;43.03;28.00;;;18.80;61.60;;;;;;5107871;27;20265;-89
2022/03/29 11:43:05;;;;;;;42.93;28.17;;;18.90;62.70;;;;;;5106595;28;20202;-89
2022/03/29 11:45:40;;;;;;;38.50;27.33;;;18.90;62.70;;;;;;5112564;28;20650;-90
2022/03/29 11:48:11;;;;;;;41.40;28.43;;;19.00;61.60;;;;;;5124092;27;20231;-89
2022/03/29 11:50:42;;;;;;;43.67;28.80;;;19.00;61.20;;;;;;5117963;27;20256;-89
2022/03/29 11:53:20;;;;;;;42.03;28.07;;;19.00;61.10;;;;;;5126149;27;20202;-87
2022/03/29 11:56:03;;;;;;;42.97;26.93;;;19.10;60.80;;;;;;5119891;27;20281;-88
2022/03/29 11:58:33;;;;;;;40.93;26.90;;;19.10;60.30;;;;;;5126606;27;20228;-87
2022/03/29 12:01:03;;;;;;;37.10;27.90;;;19.10;60.30;;;;;;5127538;27;20201;-87
2022/03/29 12:03:34;;;;;;;40.27;27.07;;;19.20;60.30;;;;;;5126640;27;20220;-89
2022/03/29 12:06:19;;;;;;;39.27;26.57;;;19.10;59.60;;;;;;5101334;27;20198;-88
2022/03/29 12:08:49;;;;;;;39.23;26.53;;;19.10;58.40;;;;;;5102810;27;20285;-91
2022/03/29 12:11:18;;;;;;;37.97;26.63;;;19.10;59.10;;;;;;5106036;27;20258;-89
2022/03/29 12:13:49;;;;;;;39.50;27.47;;;19.00;59.20;;;;;;5112965;27;20275;-91
2022/03/29 12:16:18;;;;;;;44.13;27.80;;;18.90;58.90;;;;;;5095203;28;20569;-90
2022/03/29 12:18:45;;;;;;;43.37;27.77;;;18.90;59.10;;;;;;5096535;27;20222;-88
2022/03/29 12:21:13;;;;;;;42.87;28.60;;;18.80;59.20;;;;;;5110899;27;20289;-89
2022/03/29 12:23:42;;;;;;;38.97;26.50;;;18.80;59.00;;;;;;5115282;27;20198;-89
2022/03/29 12:26:11;;;;;;;40.63;27.93;;;18.70;59.10;;;;;;5109346;27;20742;-90
2022/03/29 12:28:41;;;;;;;40.57;26.07;;;18.60;59.00;;;;;;5091963;28;20195;-88
2022/03/29 12:31:13;;;;;;;46.37;28.53;;;18.60;59.20;;;;;;5104989;27;20202;-89
2022/03/29 12:33:41;;;;;;;50.13;29.33;;;18.50;60.00;;;;;;5106987;27;20232;-88
2022/03/29 12:36:11;;;;;;;45.00;27.63;;;18.50;59.00;;;;;;5104036;27;21009;-88
2022/03/29 12:38:43;;;;;;;38.80;26.13;;;18.40;59.00;;;;;;5112430;27;20296;-89
2022/03/29 12:41:13;;;;;;;36.33;25.93;;;18.40;59.10;;;;;;5110580;27;20276;-89
2022/03/29 12:43:54;;;;;;;38.73;25.60;;;18.30;59.30;;;;;;5113489;27;20197;-89
2022/03/29 12:46:22;;;;;;;40.60;25.53;;;18.30;59.00;;;;;;5102696;27;20646;-88
2022/03/29 12:48:49;;;;;;;37.77;24.67;;;18.20;59.10;;;;;;5113246;27;20205;-90
2022/03/29 12:51:16;;;;;;;45.30;27.40;;;18.20;58.90;;;;;;5096036;27;20202;-88
2022/03/29 12:53:56;;;;;;;40.47;25.50;;;18.20;58.80;;;;;;5102502;27;20233;-89